Nearby METAR Reports

 

KSEE - San Diego/Santee, California, USA
Distance from station: E 4mi, 6km
Updated: Tue, 16-Apr-2024 7:47pm PDT
Clear
Clear
 Wind from W
Wind: W 5 mph , 7 km/h
Temperature: 64°F , 18°C
Dew Point: 46°F , 8°C
Humidity: 52%
Barometer: 30.01 inHg , 1016.3 hPa
Clouds: Clear
Visibility: 10 miles , 16 km
2024/04/17 02:47 KSEE 170247Z 28004KT 10SM SKC 18/08 A3001
KMYF - San Diego/Mntgmy, California, USA
Distance from station: W 6mi, 10km
Updated: Tue, 16-Apr-2024 7:53pm PDT
Clear
Clear
 Wind from WNW
Wind: WNW 6 mph , 9 km/h
Temperature: 64°F , 18°C
Dew Point: 46°F , 8°C
Humidity: 52%
Barometer: 30.01 inHg , 1016.3 hPa
Clouds: Clear
Visibility: 10 miles , 16 km
2024/04/17 02:53 KMYF 170253Z 30005KT 10SM CLR 18/08 A3001 RMK AO2 SLP160 T01780083 53010
 
KNKX - Miramar Nas/San, California, USA
Distance from station: WNW 7mi, 11km
Updated: Tue, 16-Apr-2024 7:55pm PDT
Clear
Clear
 Wind from W
Wind: W 5 mph , 7 km/h
Temperature: 55°F , 13°C
Dew Point: 50°F , 10°C
Humidity: 82%
Barometer: 30.01 inHg , 1016.3 hPa
Clouds: Clear
Visibility: 10 miles , 16 km
2024/04/17 02:55 KNKX 170255Z 26004KT 10SM CLR 13/10 A3001 RMK AO2 SLP158 T01280100 53010
KSAN - San Diego, California, USA
Distance from station: WSW 11mi, 17km
Updated: Tue, 16-Apr-2024 7:51pm PDT
Few Clouds
Few Clouds
 Wind from WNW
Wind: WNW 5 mph , 7 km/h
Temperature: 63°F , 17°C
Dew Point: 55°F , 13°C
Humidity: 77%
Barometer: 30.02 inHg , 1016.6 hPa
Clouds: Few Clouds
Visibility: 10 miles , 16 km
Cloud details: Few Clouds 25000 ft
2024/04/17 02:51 KSAN 170251Z 30004KT 10SM FEW250 17/13 A3002 RMK AO2 SLP166 T01720128 52011 $
 
KNZY - North Island Nas, California, USA
Distance from station: SW 13mi, 22km
Updated: Tue, 16-Apr-2024 7:52pm PDT
Few Clouds
Few Clouds
 Wind from W
Wind: W 5 mph , 7 km/h
Temperature: 63°F , 17°C
Dew Point: 57°F , 14°C
Humidity: 83%
Barometer: 30.00 inHg , 1015.9 hPa
Clouds: Few Clouds
Visibility: 10 miles , 16 km
Cloud details: Few Clouds 2500 ft
2024/04/17 02:52 KNZY 170252Z 28004KT 10SM FEW025 17/14 A3000 RMK AO2 SLP159 T01670144 53011 $
KRNM - Ramona, California, USA
Distance from station: NNE 16mi, 26km
Updated: Tue, 16-Apr-2024 7:53pm PDT
Clear
Clear
 Wind from N
Wind: N 3 mph , 6 km/h
Temperature: 61°F , 16°C
Dew Point: 46°F , 8°C
Humidity: 59%
Barometer: 30.01 inHg , 1016.3 hPa
Clouds: Clear
Visibility: 10 miles , 16 km
2024/04/17 02:53 KRNM 170253Z AUTO 01003KT 10SM CLR 16/08 A3001 RMK AO2 SLP156 T01560083 51012
 
KSDM - San Diego/Brown, California, USA
Distance from station: S 16mi, 26km
Updated: Tue, 16-Apr-2024 7:53pm PDT
Clear
Clear
 Wind from W
Wind: W 8 mph , 13 km/h
Temperature: 61°F , 16°C
Dew Point: 52°F , 11°C
Humidity: 72%
Barometer: 30.01 inHg , 1016.3 hPa
Clouds: Clear
Visibility: 10 miles , 16 km
2024/04/17 02:53 KSDM 170253Z 27007KT 10SM CLR 16/11 A3001 RMK AO2 SLP159 T01560111 51010 $
KNRS - Imperial Beach, California, USA
Distance from station: SSW 18mi, 29km
Updated: Tue, 16-Apr-2024 7:53pm PDT
Clear
Clear
 Wind from WSW
Wind: WSW 6 mph , 9 km/h
Temperature: 63°F , 17°C
Dew Point: 55°F , 13°C
Humidity: 77%
Barometer: 30.01 inHg , 1016.3 hPa
Clouds: Clear
Visibility: 10 miles , 16 km
2024/04/17 02:53 KNRS 170253Z 25005KT 10SM CLR 17/13 A3001 RMK AO2 SLP161 T01720133 51006 $
 
MMTJ - Tijuana Intl Arp, Mexico
Distance from station: S 20mi, 32km
Updated: Tue, 16-Apr-2024 7:44pm PDT
Clear
Clear
 Wind from calm
Wind: Calm
Temperature: 57°F , 14°C
Dew Point: 54°F , 12°C
Humidity: 88%
Barometer: 30.03 inHg , 1016.9 hPa
Clouds: Clear
Visibility: 10 miles , 16 km
2024/04/17 02:44 MMTJ 170244Z 00000KT 10SM SKC 14/12 A3003 RMK SLP185 52005 910 HZY
KCRQ - Carlsbad, California, USA
Distance from station: NW 26mi, 43km
Updated: Tue, 16-Apr-2024 7:53pm PDT
Clear
Clear
 Wind from calm
Wind: Calm
Temperature: 61°F , 16°C
Dew Point: 50°F , 10°C
Humidity: 68%
Barometer: 30.00 inHg , 1015.9 hPa
Clouds: Clear
Visibility: 10 miles , 16 km
2024/04/17 02:53 KCRQ 170253Z 00000KT 10SM CLR 16/10 A3000 RMK AO2 SLP156 T01610100 53008
 
KOKB - Oceanside, California, USA
Distance from station: NW 33mi, 54km
Updated: Tue, 16-Apr-2024 7:52pm PDT
Clear
Clear
 Wind from WSW
Wind: WSW 7 mph , 11 km/h
Temperature: 59°F , 15°C
Dew Point: 54°F , 12°C
Humidity: 82%
Barometer: 29.99 inHg , 1015.6 hPa
Clouds: Clear
Visibility: 9 miles , 14 km
2024/04/17 02:52 KOKB 170252Z AUTO 25006KT 9SM CLR 15/12 A2999 RMK AO2 SLP154 T01500117 53009
KCZZ - Campo, California, USA
Distance from station: ESE 35mi, 56km
Updated: Mon, 26-Oct-2020 8:52am PDT
NOT Current

 Wind from NE
Wind: NE 14 mph , 22 km/h, Gust: 20 mph , 31 km/h
Temperature: 48°F , 9°C
Wind Chill: 42°F , 6°C
Dew Point: 27°F , -3°C
Humidity: 43%
Barometer: 29.99 inHg , 1015.6 hPa
2020/10/26 15:52 KCZZ 261552Z AUTO 05012G17KT 09/M03 A2999 RMK AO1 SLP140 T00891028
 
KNFG - Camp Pendleton, California, USA
Distance from station: NNW 37mi, 59km
Updated: Tue, 16-Apr-2024 4:55pm PDT
NOT Current
Clear
Clear
 Wind from SSW
Wind: SSW 13 mph , 20 km/h, Gust: 18 mph , 30 km/h
Temperature: 73°F , 23°C
Dew Point: 54°F , 12°C
Humidity: 50%
Barometer: 29.95 inHg , 1014.2 hPa
Clouds: Clear
Visibility: 10 miles , 16 km
2024/04/16 23:55 KNFG 162355Z 20011G16KT 10SM CLR 23/12 A2995 RMK AO2 SLP141 T02280122 10244 20222 55008 $
KRIV - Riverside/March, California, USA
Distance from station: N 74mi, 119km
Updated: Tue, 16-Apr-2024 7:55pm PDT
Clear
Clear
 Wind from NNW
Wind: NNW 3 mph , 6 km/h
Temperature: 63°F , 17°C
Dew Point: 48°F , 9°C
Humidity: 59%
Barometer: 30.00 inHg , 1015.9 hPa
Clouds: Clear
Visibility: 10 miles , 16 km
2024/04/17 02:55 KRIV 170255Z AUTO 34003KT 10SM CLR 17/09 A3000 RMK AO2 SLP154 T01650087 52013
 
KTRM - Thermal/Palm Spg, California, USA
Distance from station: NE 75mi, 121km
Updated: Tue, 16-Apr-2024 7:52pm PDT
Clear
Clear
 Wind from SSW
Wind: SSW 5 mph , 7 km/h
Temperature: 73°F , 23°C
Dew Point: 37°F , 3°C
Humidity: 27%
Barometer: 29.87 inHg , 1011.5 hPa
Clouds: Clear
Visibility: 10 miles , 16 km
2024/04/17 02:52 KTRM 170252Z AUTO 20004KT 10SM CLR 23/03 A2987 RMK AO2 SLP114 T02280033 53005 $
KPSP - Palm Springs, California, USA
Distance from station: NNE 76mi, 122km
Updated: Tue, 16-Apr-2024 7:53pm PDT
Clear
Clear
 Wind from E
Wind: E 9 mph , 15 km/h
Temperature: 84°F , 29°C
Dew Point: 30°F , -1°C
Humidity: 14%
Barometer: 29.91 inHg , 1012.9 hPa
Clouds: Clear
Visibility: 10 miles , 16 km
2024/04/17 02:53 KPSP 170253Z 09008KT 10SM CLR 29/M01 A2991 RMK AO2 SLP125 6//// T02891006 53007 PNO $
 
KSNA - Costa Mesa, California, USA
Distance from station: NW 76mi, 123km
Updated: Tue, 16-Apr-2024 7:53pm PDT
Few Clouds
Few Clouds
 Wind from varies
Wind: varies 3 mph , 6 km/h
Temperature: 66°F , 19°C
Dew Point: 46°F , 8°C
Humidity: 49%
Barometer: 29.99 inHg , 1015.6 hPa
Clouds: Few Clouds
Visibility: 10 miles , 16 km
Cloud details: Few Clouds 18000 ft
2024/04/17 02:53 KSNA 170253Z VRB03KT 10SM FEW180 19/08 A2999 RMK AO2 SLP155 T01890083 53008 $
KNJK - El Centro Naf, California, USA
Distance from station: E 79mi, 127km
Updated: Tue, 16-Apr-2024 7:56pm PDT
Clear
Clear
 Wind from WSW
Wind: WSW 3 mph , 6 km/h
Temperature: 81°F , 27°C
Dew Point: 30°F , -1°C
Humidity: 16%
Barometer: 29.90 inHg , 1012.5 hPa
Clouds: Clear
Visibility: 10 miles , 16 km
2024/04/17 02:56 KNJK 170256Z 24003KT 10SM CLR 27/M01 A2990 RMK AO2 SLP139 T02721011 55000 $
 
KAJO - Corona Muni, California, USA
Distance from station: NNW 82mi, 132km
Updated: Tue, 16-Apr-2024 7:56pm PDT
Clear
Clear
 Wind from NW
Wind: NW 13 mph , 20 km/h
Temperature: 70°F , 21°C
Dew Point: 45°F , 7°C
Humidity: 40%
Barometer: 29.98 inHg , 1015.2 hPa
Clouds: Clear
Visibility: 10 miles , 16 km
2024/04/17 02:56 KAJO 170256Z AUTO 32011KT 10SM CLR 21/07 A2998 RMK AO2 SLP149 T02110072